Dmitrov, Russia
Current Conditions -  °F | °C
As of 9:30 AM on Wednesday 26 Nov 2014 (Local Time) from UUEE Reporting Station
Haze Haze  
Wind Chill: 11°   Ceiling: 400
Heat Index: 19°   Visibility: 2.5mi
Dew Point: 19°   Wind: 7mph
Humidity: 100%   Direction: 240°WSW
Pressure: 30.45"   Gusts: NA
Location:  56.35°N, 37.52°E
Report Text: UUEE 260630Z 24003MPS 4000 BR OVC004 M07/M07 Q1031 2542015775420162 NOSIG
Loading
Personal Weather Stations






























Interactive Weather Map New forecast layout! Learn more

10-Day Weather Forecast

Advertisements
Track Severe Weather on mobile